Terminal Aerodrome Forecast
Issued by NWS

Home | Current Version | Previous Version | Text Only | Print | Product List | Glossary On
Versions: 1 2 3 4 5 6 7 8 9 10 11 12
000
FTUS42 TJSJ 221100
TAFJBQ
TAF
TJBQ 221131Z 2212/2312 13005KT P6SM SCT030
     FM221400 08016G25KT P6SM FEW025 SCT035
     FM222300 10010KT P6SM FEW025=

USA.gov is the U.S. government's official web portal to all federal, state and local government web resources and services.